Time;durP1;ratioP1;P1;durP2;ratioP2;P2;SDS_P1;SDS_P2;PMS_P1;PMS_P2;Temp;Humidity;BMP_temperature;BMP_pressure;BME280_temperature;BME280_humidity;BME280_pressure;Samples;Min_cycle;Max_cycle;Signal;HPM_P1;HPM_P2
2022/02/24 00:02:20;;;;;;;50.20;23.70;;;;;;;;;;5093830;28;20458;-71
2022/02/24 00:04:50;;;;;;;269.58;112.72;;;;;;;;;;5093801;28;20508;-71
2022/02/24 00:07:17;;;;;;;156.25;72.03;;;;;;;;;;5093810;28;20031;-62
2022/02/24 00:09:42;;;;;;;42.58;21.05;;;;;;;;;;5092359;28;20078;-62
2022/02/24 00:12:08;;;;;;;70.63;33.25;;;;;;;;;;5093562;28;20463;-62
2022/02/24 00:14:34;;;;;;;109.68;52.63;;;;;;;;;;5093694;28;20381;-62
2022/02/24 00:16:59;;;;;;;127.15;58.95;;;;;;;;;;5093627;28;20012;-62
2022/02/24 00:19:27;;;;;;;44.13;20.98;;;;;;;;;;5093820;28;20360;-62
2022/02/24 00:21:52;;;;;;;71.53;35.25;;;;;;;;;;5093126;28;20081;-62
2022/02/24 00:24:17;;;;;;;98.55;55.17;;;;;;;;;;5093949;28;20398;-62
2022/02/24 00:26:43;;;;;;;41.85;20.98;;;;;;;;;;5092354;28;20059;-62
2022/02/24 00:29:09;;;;;;;37.45;18.33;;;;;;;;;;5093624;28;20024;-62
2022/02/24 00:31:34;;;;;;;47.20;19.98;;;;;;;;;;5092554;28;20069;-62
2022/02/24 00:34:02;;;;;;;43.17;20.02;;;;;;;;;;5092241;28;20024;-62
2022/02/24 00:36:27;;;;;;;43.45;20.48;;;;;;;;;;5093286;28;20025;-62
2022/02/24 00:38:53;;;;;;;44.15;22.02;;;;;;;;;;5093813;28;20367;-62
2022/02/24 00:41:18;;;;;;;46.15;24.13;;;;;;;;;;5093514;28;20016;-62
2022/02/24 00:43:45;;;;;;;47.00;22.85;;;;;;;;;;5093448;28;20484;-62
2022/02/24 00:46:10;;;;;;;49.25;23.73;;;;;;;;;;5093332;28;20077;-62
2022/02/24 00:48:36;;;;;;;45.15;22.55;;;;;;;;;;5097017;28;20485;-61
2022/02/24 00:51:02;;;;;;;43.08;21.10;;;;;;;;;;5097549;28;20452;-62
2022/02/24 00:53:27;;;;;;;39.72;18.08;;;;;;;;;;5097713;28;20024;-62
2022/02/24 00:55:53;;;;;;;36.28;18.15;;;;;;;;;;5097398;28;20062;-62
2022/02/24 00:58:18;;;;;;;46.03;19.95;;;;;;;;;;5097269;28;20028;-62
2022/02/24 01:00:44;;;;;;;43.42;19.65;;;;;;;;;;5097554;28;20020;-62
2022/02/24 01:03:09;;;;;;;42.00;18.50;;;;;;;;;;5097152;28;20028;-62
2022/02/24 01:05:35;;;;;;;39.67;19.70;;;;;;;;;;5097237;28;20048;-62
2022/02/24 01:08:00;;;;;;;46.67;22.83;;;;;;;;;;5097087;28;20085;-62
2022/02/24 01:10:26;;;;;;;40.45;19.60;;;;;;;;;;5097489;28;20020;-62
2022/02/24 01:12:51;;;;;;;40.17;17.70;;;;;;;;;;5095611;28;20047;-62
2022/02/24 01:15:17;;;;;;;38.75;18.58;;;;;;;;;;5097092;28;20370;-62
2022/02/24 01:17:43;;;;;;;36.08;18.05;;;;;;;;;;5096863;28;20032;-62
2022/02/24 01:20:09;;;;;;;43.83;20.38;;;;;;;;;;5096902;28;20378;-62
2022/02/24 01:22:35;;;;;;;50.90;22.42;;;;;;;;;;5096736;28;20028;-62
2022/02/24 01:25:01;;;;;;;52.95;23.83;;;;;;;;;;5096699;28;20019;-62
2022/02/24 01:27:27;;;;;;;60.63;28.17;;;;;;;;;;5096973;28;20447;-62
2022/02/24 01:29:54;;;;;;;52.08;23.23;;;;;;;;;;5095390;28;20035;-62
2022/02/24 01:32:19;;;;;;;48.33;24.25;;;;;;;;;;5095315;28;20032;-62
2022/02/24 01:34:45;;;;;;;53.38;25.35;;;;;;;;;;5078477;28;20035;-62
2022/02/24 01:37:10;;;;;;;53.80;25.20;;;;;;;;;;5095608;28;20397;-62
2022/02/24 01:39:36;;;;;;;61.75;27.35;;;;;;;;;;5096514;28;20024;-62
2022/02/24 01:42:07;;;;;;;71.55;28.52;;;;;;;;;;5096699;28;20081;-62
2022/02/24 01:44:43;;;;;;;66.93;30.27;;;;;;;;;;5096484;28;20043;-62
2022/02/24 01:47:13;;;;;;;76.00;33.63;;;;;;;;;;5096348;28;20032;-62
2022/02/24 01:49:44;;;;;;;80.25;34.95;;;;;;;;;;5096108;28;20047;-62
2022/02/24 01:52:11;;;;;;;70.90;32.55;;;;;;;;;;5096244;28;20063;-62
2022/02/24 01:54:37;;;;;;;49.22;23.77;;;;;;;;;;5096327;28;20073;-62
2022/02/24 01:57:03;;;;;;;48.67;22.63;;;;;;;;;;5096430;28;20114;-62
2022/02/24 01:59:29;;;;;;;42.78;22.00;;;;;;;;;;5096093;28;20047;-63
2022/02/24 02:01:55;;;;;;;48.53;22.50;;;;;;;;;;5078005;28;20432;-62
2022/02/24 02:04:21;;;;;;;44.58;22.02;;;;;;;;;;5095030;28;20073;-62
2022/02/24 02:06:47;;;;;;;44.90;23.00;;;;;;;;;;5095989;28;20024;-62
2022/02/24 02:09:13;;;;;;;54.72;24.45;;;;;;;;;;5096152;28;20068;-70
2022/02/24 02:11:38;;;;;;;52.90;24.30;;;;;;;;;;5095551;28;20431;-70
2022/02/24 02:14:04;;;;;;;49.95;24.40;;;;;;;;;;5095938;28;20111;-70
2022/02/24 02:16:30;;;;;;;42.83;21.73;;;;;;;;;;5095858;28;20052;-70
2022/02/24 02:18:58;;;;;;;39.95;20.42;;;;;;;;;;5095924;28;20023;-71
2022/02/24 02:21:32;;;;;;;44.08;21.35;;;;;;;;;;5095765;28;20043;-71
2022/02/24 02:23:59;;;;;;;39.33;20.10;;;;;;;;;;5095870;28;20024;-63
2022/02/24 02:26:24;;;;;;;41.05;20.98;;;;;;;;;;5095904;28;20024;-63
2022/02/24 02:28:50;;;;;;;43.72;21.30;;;;;;;;;;5095498;28;20525;-63
2022/02/24 02:31:20;;;;;;;43.70;21.17;;;;;;;;;;5095685;28;20119;-61
2022/02/24 02:33:46;;;;;;;44.53;23.08;;;;;;;;;;5095641;28;20024;-61
2022/02/24 02:36:11;;;;;;;42.40;21.73;;;;;;;;;;5095219;28;20027;-62
2022/02/24 02:38:37;;;;;;;39.50;20.38;;;;;;;;;;5094259;28;20024;-61
2022/02/24 02:41:02;;;;;;;38.55;19.40;;;;;;;;;;5095378;28;20432;-61
2022/02/24 02:43:28;;;;;;;42.75;20.23;;;;;;;;;;5095634;28;20529;-61
2022/02/24 02:45:53;;;;;;;42.75;20.75;;;;;;;;;;5095447;28;20020;-61
2022/02/24 02:48:19;;;;;;;38.72;19.73;;;;;;;;;;5093984;28;20028;-62
2022/02/24 02:50:44;;;;;;;43.80;19.90;;;;;;;;;;5095156;28;20124;-61
2022/02/24 02:53:10;;;;;;;38.50;19.77;;;;;;;;;;5095050;28;20036;-61
2022/02/24 02:55:35;;;;;;;38.10;19.05;;;;;;;;;;5095071;28;20020;-70
2022/02/24 02:58:02;;;;;;;45.45;19.50;;;;;;;;;;5095055;28;20054;-69
2022/02/24 03:00:27;;;;;;;38.95;18.35;;;;;;;;;;5094045;28;20008;-70
2022/02/24 03:02:53;;;;;;;42.00;19.38;;;;;;;;;;5095042;28;20039;-69
2022/02/24 03:05:19;;;;;;;41.80;19.40;;;;;;;;;;5094083;28;20446;-69
2022/02/24 03:07:44;;;;;;;39.08;18.88;;;;;;;;;;5094741;28;20047;-69
2022/02/24 03:10:10;;;;;;;39.83;19.30;;;;;;;;;;5094212;28;20058;-69
2022/02/24 03:12:38;;;;;;;39.97;19.60;;;;;;;;;;5094725;28;20032;-69
2022/02/24 03:15:13;;;;;;;41.20;19.08;;;;;;;;;;5095003;28;20016;-69
2022/02/24 03:17:39;;;;;;;45.33;21.67;;;;;;;;;;5094732;28;20038;-69
2022/02/24 03:20:05;;;;;;;50.15;22.75;;;;;;;;;;5094692;28;20099;-62
2022/02/24 03:22:30;;;;;;;47.90;24.48;;;;;;;;;;5094653;28;20492;-62
2022/02/24 03:24:56;;;;;;;50.40;23.17;;;;;;;;;;5094705;28;20027;-62
2022/02/24 03:27:21;;;;;;;44.95;20.83;;;;;;;;;;5094467;28;20035;-62
2022/02/24 03:29:47;;;;;;;40.03;19.92;;;;;;;;;;5094482;28;20028;-63
2022/02/24 03:32:12;;;;;;;46.50;20.88;;;;;;;;;;5093279;28;20028;-63
2022/02/24 03:34:40;;;;;;;41.45;19.67;;;;;;;;;;5094256;28;20030;-63
2022/02/24 03:37:06;;;;;;;42.75;20.98;;;;;;;;;;5094344;28;20028;-63
2022/02/24 03:39:32;;;;;;;51.22;22.27;;;;;;;;;;5093298;28;20039;-62
2022/02/24 03:41:58;;;;;;;43.72;20.83;;;;;;;;;;5094314;28;20390;-62
2022/02/24 03:44:23;;;;;;;43.58;21.20;;;;;;;;;;5094255;28;20016;-62
2022/02/24 03:46:49;;;;;;;49.70;22.05;;;;;;;;;;5094306;28;20398;-62
2022/02/24 03:49:14;;;;;;;42.47;20.05;;;;;;;;;;5092514;28;20050;-62
2022/02/24 03:51:41;;;;;;;42.80;20.20;;;;;;;;;;5092825;28;20123;-62
2022/02/24 03:54:07;;;;;;;46.95;20.73;;;;;;;;;;5094213;28;20043;-63
2022/02/24 03:56:32;;;;;;;43.08;19.27;;;;;;;;;;5093916;28;20032;-62
2022/02/24 03:58:58;;;;;;;39.65;18.52;;;;;;;;;;5093710;28;20023;-62
2022/02/24 04:01:23;;;;;;;69.55;27.67;;;;;;;;;;5093200;28;20477;-62
2022/02/24 04:03:49;;;;;;;100.45;41.05;;;;;;;;;;5093980;28;20024;-63
2022/02/24 04:06:14;;;;;;;145.30;51.60;;;;;;;;;;5092433;28;20040;-63
2022/02/24 04:08:40;;;;;;;131.20;47.58;;;;;;;;;;5093727;28;20019;-62
2022/02/24 04:11:05;;;;;;;119.93;45.42;;;;;;;;;;5092710;28;20036;-62
2022/02/24 04:13:31;;;;;;;105.68;38.90;;;;;;;;;;5094001;28;20020;-62
2022/02/24 04:15:58;;;;;;;120.40;40.47;;;;;;;;;;5092656;28;20533;-62
2022/02/24 04:18:24;;;;;;;100.18;33.78;;;;;;;;;;5093670;28;20110;-62
2022/02/24 04:20:50;;;;;;;83.68;30.02;;;;;;;;;;5093301;28;20385;-62
2022/02/24 04:23:16;;;;;;;87.55;30.50;;;;;;;;;;5093287;28;20103;-62
2022/02/24 04:25:41;;;;;;;83.82;29.73;;;;;;;;;;5093821;28;20036;-62
2022/02/24 04:28:07;;;;;;;70.63;27.48;;;;;;;;;;5093500;28;20016;-62
2022/02/24 04:30:33;;;;;;;72.10;26.70;;;;;;;;;;5093867;28;20411;-63
2022/02/24 04:32:58;;;;;;;73.80;26.58;;;;;;;;;;5092100;28;20019;-63
2022/02/24 04:49:06;;;;;;;59.97;28.67;;;;;;;;;;5070644;28;20482;-60
2022/02/24 04:51:32;;;;;;;48.70;26.13;;;;;;;;;;5070651;28;20111;-60
2022/02/24 04:53:58;;;;;;;45.08;22.58;;;;;;;;;;5069098;28;20479;-60
2022/02/24 04:56:24;;;;;;;47.67;22.60;;;;;;;;;;5070249;28;20090;-60
2022/02/24 04:58:49;;;;;;;43.97;21.90;;;;;;;;;;5064962;28;20024;-61
2022/02/24 05:01:14;;;;;;;43.42;21.90;;;;;;;;;;5067224;28;20369;-60
2022/02/24 05:03:40;;;;;;;43.63;22.20;;;;;;;;;;5069354;28;20025;-61
2022/02/24 05:06:05;;;;;;;46.72;21.35;;;;;;;;;;5070122;28;20123;-59
2022/02/24 05:08:37;;;;;;;44.20;22.45;;;;;;;;;;5070285;28;20056;-68
2022/02/24 05:11:02;;;;;;;49.35;23.50;;;;;;;;;;5068874;28;20120;-68
2022/02/24 05:13:28;;;;;;;59.67;24.30;;;;;;;;;;5070033;28;20099;-68
2022/02/24 05:15:54;;;;;;;50.50;23.17;;;;;;;;;;5069857;28;20531;-69
2022/02/24 05:18:20;;;;;;;51.38;25.40;;;;;;;;;;5069902;28;20391;-68
2022/02/24 05:20:45;;;;;;;64.60;31.35;;;;;;;;;;5070128;28;20029;-68
2022/02/24 05:23:11;;;;;;;51.22;25.45;;;;;;;;;;5070062;28;20357;-69
2022/02/24 05:25:37;;;;;;;66.88;30.48;;;;;;;;;;5068963;28;20029;-69
2022/02/24 05:28:07;;;;;;;60.60;28.67;;;;;;;;;;5069656;28;20032;-69
2022/02/24 05:30:32;;;;;;;58.92;26.88;;;;;;;;;;5069768;28;20052;-69
2022/02/24 05:32:58;;;;;;;54.83;25.05;;;;;;;;;;5069343;28;20475;-69
2022/02/24 05:35:23;;;;;;;47.38;23.08;;;;;;;;;;5069611;28;20086;-69
2022/02/24 05:37:49;;;;;;;59.22;31.85;;;;;;;;;;5069402;28;20048;-68
2022/02/24 05:40:14;;;;;;;64.72;32.67;;;;;;;;;;5069386;28;20560;-69
2022/02/24 05:42:41;;;;;;;63.65;31.63;;;;;;;;;;5069545;28;20403;-70
2022/02/24 05:45:07;;;;;;;67.32;30.67;;;;;;;;;;5069128;28;20112;-69
2022/02/24 05:47:32;;;;;;;90.45;35.10;;;;;;;;;;5068796;28;20148;-69
2022/02/24 05:49:58;;;;;;;100.45;37.25;;;;;;;;;;5056416;28;20088;-69
2022/02/24 05:52:24;;;;;;;90.28;33.78;;;;;;;;;;5056048;28;20112;-69
2022/02/24 05:54:50;;;;;;;92.07;35.55;;;;;;;;;;5056209;28;20025;-70
2022/02/24 05:57:19;;;;;;;100.05;37.05;;;;;;;;;;5055815;28;20491;-68
2022/02/24 05:59:45;;;;;;;70.85;28.90;;;;;;;;;;5054859;28;20059;-69
2022/02/24 06:02:10;;;;;;;115.50;47.65;;;;;;;;;;5055852;28;20025;-68
2022/02/24 06:04:36;;;;;;;159.10;72.45;;;;;;;;;;5055738;28;20087;-68
2022/02/24 06:07:01;;;;;;;150.10;73.07;;;;;;;;;;5056139;28;20053;-69
2022/02/24 06:09:27;;;;;;;130.73;59.50;;;;;;;;;;5055834;28;20033;-68
2022/02/24 06:11:52;;;;;;;135.73;62.85;;;;;;;;;;5055837;28;20509;-68
2022/02/24 06:14:18;;;;;;;135.10;61.38;;;;;;;;;;5055775;28;20044;-69
2022/02/24 06:16:44;;;;;;;211.98;106.50;;;;;;;;;;5055829;28;20021;-69
2022/02/24 06:19:09;;;;;;;190.20;91.88;;;;;;;;;;5055544;28;20087;-68
2022/02/24 06:21:35;;;;;;;148.60;72.90;;;;;;;;;;5055196;28;20048;-69
2022/02/24 06:24:00;;;;;;;167.18;82.05;;;;;;;;;;5055124;28;20029;-68
2022/02/24 06:26:26;;;;;;;161.57;83.45;;;;;;;;;;5055171;28;20021;-68
2022/02/24 06:28:51;;;;;;;163.88;80.03;;;;;;;;;;5055601;28;20032;-68
2022/02/24 06:31:17;;;;;;;179.32;81.80;;;;;;;;;;5055214;28;20475;-69
2022/02/24 06:33:42;;;;;;;151.85;67.95;;;;;;;;;;5055415;28;20025;-68
2022/02/24 06:36:08;;;;;;;170.30;77.13;;;;;;;;;;5055436;28;20376;-69
2022/02/24 06:38:33;;;;;;;139.43;73.65;;;;;;;;;;5054509;28;20024;-68
2022/02/24 06:40:59;;;;;;;98.85;52.33;;;;;;;;;;5054761;28;20013;-68
2022/02/24 06:43:30;;;;;;;65.18;30.48;;;;;;;;;;5054367;28;20086;-67
2022/02/24 06:45:55;;;;;;;51.15;25.15;;;;;;;;;;5054606;28;20025;-67
2022/02/24 06:48:21;;;;;;;49.03;23.02;;;;;;;;;;5054526;28;20041;-67
2022/02/24 06:50:49;;;;;;;63.60;25.90;;;;;;;;;;5054595;28;20369;-67
2022/02/24 06:53:14;;;;;;;74.63;29.98;;;;;;;;;;5054551;28;20021;-67
2022/02/24 06:55:39;;;;;;;61.33;29.00;;;;;;;;;;5054410;28;20483;-67
2022/02/24 06:58:05;;;;;;;183.77;94.75;;;;;;;;;;5054480;28;20024;-67
2022/02/24 07:00:31;;;;;;;107.57;53.55;;;;;;;;;;5052068;28;20025;-67
2022/02/24 07:02:56;;;;;;;116.65;50.42;;;;;;;;;;5054378;28;20028;-67
2022/02/24 07:05:22;;;;;;;324.45;133.93;;;;;;;;;;5054520;28;20028;-65
2022/02/24 07:07:47;;;;;;;258.90;111.20;;;;;;;;;;5054198;28;20012;-66
2022/02/24 07:10:13;;;;;;;203.02;99.95;;;;;;;;;;5054274;28;20061;-66
2022/02/24 07:12:39;;;;;;;175.70;87.70;;;;;;;;;;5054195;28;20491;-67
2022/02/24 07:15:05;;;;;;;123.63;62.97;;;;;;;;;;5054347;28;20028;-67
2022/02/24 07:17:30;;;;;;;99.03;48.70;;;;;;;;;;5054121;28;20021;-67
2022/02/24 07:19:56;;;;;;;71.53;34.63;;;;;;;;;;5052816;28;20048;-67
2022/02/24 07:22:21;;;;;;;47.75;22.52;;;;;;;;;;5053973;28;20021;-67
2022/02/24 07:24:46;;;;;;;52.70;20.20;;;;;;;;;;5052674;28;20486;-67
2022/02/24 07:27:13;;;;;;;54.88;20.98;;;;;;;;;;5053931;28;20112;-67
2022/02/24 07:29:40;;;;;;;41.92;17.48;;;;;;;;;;5052546;28;20385;-67
2022/02/24 07:32:06;;;;;;;31.83;14.07;;;;;;;;;;5053695;28;20021;-67
2022/02/24 07:34:32;;;;;;;30.17;13.07;;;;;;;;;;5053838;28;20366;-67
2022/02/24 07:36:58;;;;;;;30.35;13.50;;;;;;;;;;5053497;28;20032;-67
2022/02/24 07:39:23;;;;;;;26.88;13.55;;;;;;;;;;5054002;28;20029;-67
2022/02/24 07:41:49;;;;;;;23.10;11.80;;;;;;;;;;5054201;28;20025;-67
2022/02/24 07:44:15;;;;;;;27.02;12.70;;;;;;;;;;5052447;28;20025;-67
2022/02/24 07:46:41;;;;;;;25.60;12.95;;;;;;;;;;5053717;28;20384;-66
2022/02/24 07:49:07;;;;;;;30.17;14.75;;;;;;;;;;5052810;28;20060;-67
2022/02/24 07:51:32;;;;;;;29.20;14.88;;;;;;;;;;5052866;28;20037;-67
2022/02/24 07:53:58;;;;;;;31.65;15.75;;;;;;;;;;5053155;28;20040;-67
2022/02/24 07:56:23;;;;;;;22.50;11.77;;;;;;;;;;5052251;28;20102;-67
2022/02/24 07:58:49;;;;;;;17.33;8.70;;;;;;;;;;5050572;28;20032;-67
2022/02/24 08:01:15;;;;;;;15.82;8.15;;;;;;;;;;5052072;28;20021;-67
2022/02/24 08:03:41;;;;;;;13.50;6.97;;;;;;;;;;5052345;28;20059;-67
2022/02/24 08:06:06;;;;;;;10.80;6.78;;;;;;;;;;5052539;28;20048;-67
2022/02/24 08:08:32;;;;;;;13.65;6.70;;;;;;;;;;5052524;28;20086;-67
2022/02/24 08:10:57;;;;;;;12.88;6.03;;;;;;;;;;5052552;28;20021;-68
2022/02/24 08:13:23;;;;;;;13.90;6.18;;;;;;;;;;5052856;28;20111;-67
2022/02/24 08:15:48;;;;;;;10.15;6.25;;;;;;;;;;5053024;28;20053;-67
2022/02/24 08:18:15;;;;;;;13.65;6.32;;;;;;;;;;5052923;28;20033;-67
2022/02/24 08:20:40;;;;;;;13.63;5.80;;;;;;;;;;5051960;28;20035;-67
2022/02/24 08:23:06;;;;;;;10.30;5.25;;;;;;;;;;5053099;28;20059;-67
2022/02/24 08:25:32;;;;;;;8.48;5.25;;;;;;;;;;5052683;28;20017;-67
2022/02/24 08:27:58;;;;;;;9.75;5.43;;;;;;;;;;5053059;28;20040;-67
2022/02/24 08:30:24;;;;;;;10.32;5.00;;;;;;;;;;5051462;28;20364;-68
2022/02/24 08:32:50;;;;;;;14.45;6.15;;;;;;;;;;5053537;28;20116;-68
2022/02/24 08:35:16;;;;;;;9.93;4.60;;;;;;;;;;5053288;28;20072;-68
2022/02/24 08:37:45;;;;;;;9.43;4.90;;;;;;;;;;5052766;28;20041;-68
2022/02/24 08:40:11;;;;;;;6.63;4.43;;;;;;;;;;5052600;28;20082;-67
2022/02/24 08:42:36;;;;;;;7.32;3.70;;;;;;;;;;5052737;28;20079;-67
2022/02/24 08:45:02;;;;;;;5.85;3.50;;;;;;;;;;5052701;28;20475;-67
2022/02/24 08:47:28;;;;;;;7.03;3.25;;;;;;;;;;5051854;28;20110;-67
2022/02/24 08:49:54;;;;;;;7.90;4.63;;;;;;;;;;5052639;28;20056;-67
2022/02/24 08:52:19;;;;;;;9.57;4.32;;;;;;;;;;5052693;28;20116;-68
2022/02/24 08:54:46;;;;;;;6.85;3.60;;;;;;;;;;5052719;28;20436;-68
2022/02/24 08:57:12;;;;;;;5.88;3.72;;;;;;;;;;5052628;28;20067;-68
2022/02/24 08:59:38;;;;;;;6.40;3.53;;;;;;;;;;5052546;28;20045;-67
2022/02/24 09:02:05;;;;;;;9.18;3.17;;;;;;;;;;5052653;28;20366;-67
2022/02/24 09:04:32;;;;;;;5.72;3.17;;;;;;;;;;5052650;28;20353;-67
2022/02/24 09:06:58;;;;;;;6.70;3.40;;;;;;;;;;5052656;28;20036;-68
2022/02/24 09:09:24;;;;;;;7.70;3.80;;;;;;;;;;5052601;28;20025;-67
2022/02/24 09:11:50;;;;;;;6.88;3.60;;;;;;;;;;5052432;28;20545;-68
2022/02/24 09:14:15;;;;;;;7.35;3.72;;;;;;;;;;5052392;28;20024;-67
2022/02/24 09:16:43;;;;;;;9.50;3.97;;;;;;;;;;5052332;28;20037;-67
2022/02/24 09:19:08;;;;;;;7.95;4.07;;;;;;;;;;5051264;28;20057;-68
2022/02/24 09:21:34;;;;;;;6.32;3.83;;;;;;;;;;5052232;28;20064;-59
2022/02/24 09:24:00;;;;;;;7.80;3.65;;;;;;;;;;5061222;28;20029;-68
2022/02/24 09:26:25;;;;;;;4.38;2.50;;;;;;;;;;5064266;28;20111;-68
2022/02/24 09:28:51;;;;;;;4.70;3.20;;;;;;;;;;5058932;28;20013;-68
2022/02/24 09:31:16;;;;;;;4.68;2.30;;;;;;;;;;5055212;28;20460;-68
2022/02/24 09:33:42;;;;;;;4.25;2.63;;;;;;;;;;5061341;28;20147;-67
2022/02/24 09:36:07;;;;;;;4.47;2.25;;;;;;;;;;5076478;28;20044;-68
2022/02/24 09:38:32;;;;;;;6.50;3.17;;;;;;;;;;5076001;28;20089;-67
2022/02/24 09:40:59;;;;;;;6.68;3.08;;;;;;;;;;5075439;28;20052;-68
2022/02/24 09:43:27;;;;;;;5.85;3.13;;;;;;;;;;5075656;28;20046;-67
2022/02/24 09:45:57;;;;;;;10.38;3.58;;;;;;;;;;5076563;28;20032;-70
2022/02/24 09:48:28;;;;;;;6.50;3.47;;;;;;;;;;5075562;28;20396;-70
2022/02/24 09:50:54;;;;;;;4.75;2.67;;;;;;;;;;5076031;28;20487;-70
2022/02/24 09:53:20;;;;;;;5.70;2.78;;;;;;;;;;5076044;28;20021;-70
2022/02/24 09:55:51;;;;;;;7.25;4.03;;;;;;;;;;5076465;28;20062;-70
2022/02/24 09:58:17;;;;;;;9.18;4.28;;;;;;;;;;5075680;28;20050;-70
2022/02/24 10:00:42;;;;;;;9.00;4.00;;;;;;;;;;5075747;28;20028;-71
2022/02/24 10:03:23;;;;;;;10.15;4.10;;;;;;;;;;5075693;28;20062;-70
2022/02/24 10:05:49;;;;;;;7.60;3.55;;;;;;;;;;5075492;28;20112;-70
2022/02/24 10:08:14;;;;;;;8.93;4.45;;;;;;;;;;5075404;28;20107;-70
2022/02/24 10:10:42;;;;;;;10.75;4.55;;;;;;;;;;5075387;28;20040;-70
2022/02/24 10:13:15;;;;;;;11.55;4.30;;;;;;;;;;5075507;28;20044;-70
2022/02/24 10:15:51;;;;;;;9.85;4.90;;;;;;;;;;5075351;28;20475;-70
2022/02/24 10:18:18;;;;;;;8.07;4.18;;;;;;;;;;5074811;28;20041;-70
2022/02/24 10:20:48;;;;;;;5.40;2.67;;;;;;;;;;5073911;28;20356;-70
2022/02/24 10:23:14;;;;;;;6.28;3.13;;;;;;;;;;5075188;28;20060;-70
2022/02/24 10:26:03;;;;;;;9.25;4.40;;;;;;;;;;5075084;28;20047;-70
2022/02/24 10:28:29;;;;;;;6.35;3.33;;;;;;;;;;5069441;28;20044;-70
2022/02/24 10:30:54;;;;;;;5.90;2.80;;;;;;;;;;5075041;28;20081;-70
2022/02/24 10:33:27;;;;;;;9.07;3.92;;;;;;;;;;5074865;28;20111;-71
2022/02/24 10:35:53;;;;;;;11.45;4.28;;;;;;;;;;5073542;28;20056;-70
2022/02/24 10:38:27;;;;;;;7.72;4.10;;;;;;;;;;5074486;28;20059;-70
2022/02/24 10:40:53;;;;;;;3.20;2.28;;;;;;;;;;5074839;28;20031;-70
2022/02/24 10:43:22;;;;;;;5.10;2.90;;;;;;;;;;5074830;28;20012;-70
2022/02/24 10:45:57;;;;;;;3.88;2.33;;;;;;;;;;5074772;28;20028;-70
2022/02/24 10:48:24;;;;;;;5.88;3.25;;;;;;;;;;5074554;28;20053;-70
2022/02/24 10:50:50;;;;;;;4.10;2.78;;;;;;;;;;5074663;28;20025;-70
2022/02/24 10:53:16;;;;;;;7.40;3.53;;;;;;;;;;5073360;28;20476;-70
2022/02/24 10:56:00;;;;;;;6.90;3.33;;;;;;;;;;5074561;28;20120;-69
2022/02/24 10:58:30;;;;;;;7.00;3.45;;;;;;;;;;5074326;28;20025;-70
2022/02/24 11:01:05;;;;;;;3.67;2.67;;;;;;;;;;5074490;28;20024;-70
2022/02/24 11:03:30;;;;;;;5.82;3.10;;;;;;;;;;5074401;28;20482;-70
2022/02/24 11:06:01;;;;;;;8.63;3.53;;;;;;;;;;5073147;28;20020;-70
2022/02/24 11:08:27;;;;;;;;;;;;;;;;;;5074767;28;20024;-70
2022/02/24 11:10:53;;;;;;;5.65;2.92;;;;;;;;;;5074298;28;19912;-70
2022/02/24 11:13:18;;;;;;;7.25;3.85;;;;;;;;;;5074141;28;20033;-69
2022/02/24 11:15:44;;;;;;;5.38;2.70;;;;;;;;;;5074111;28;20506;-70
2022/02/24 11:18:10;;;;;;;6.80;3.33;;;;;;;;;;5074033;28;20035;-70
2022/02/24 11:20:35;;;;;;;8.43;3.70;;;;;;;;;;5073922;28;20525;-70
2022/02/24 11:23:06;;;;;;;5.22;3.38;;;;;;;;;;5073935;28;20031;-70
2022/02/24 11:25:34;;;;;;;6.15;3.13;;;;;;;;;;5073990;28;20035;-70
2022/02/24 11:28:02;;;;;;;5.18;3.28;;;;;;;;;;5072716;28;20115;-71
2022/02/24 11:30:32;;;;;;;6.30;3.60;;;;;;;;;;5073809;28;20036;-70
2022/02/24 11:32:57;;;;;;;6.47;2.17;;;;;;;;;;5073677;28;20037;-70
2022/02/24 11:35:25;;;;;;;3.83;2.20;;;;;;;;;;5073752;28;20031;-69
2022/02/24 11:38:09;;;;;;;6.70;2.70;;;;;;;;;;5073609;28;20493;-71
2022/02/24 11:40:37;;;;;;;3.05;1.80;;;;;;;;;;5073669;28;20324;-71
2022/02/24 11:43:22;;;;;;;6.80;2.88;;;;;;;;;;5073568;28;20016;-68
2022/02/24 11:45:52;;;;;;;4.78;2.80;;;;;;;;;;5073362;28;20029;-71
2022/02/24 11:48:18;;;;;;;5.75;2.90;;;;;;;;;;5072849;28;20044;-71
2022/02/24 11:50:45;;;;;;;4.85;2.58;;;;;;;;;;5073482;28;20043;-71
2022/02/24 11:53:26;;;;;;;6.20;3.40;;;;;;;;;;5073428;28;20071;-71
2022/02/24 11:55:51;;;;;;;4.00;2.58;;;;;;;;;;5073446;28;20024;-71
2022/02/24 11:58:29;;;;;;;5.15;2.97;;;;;;;;;;5073187;28;20379;-69
2022/02/24 12:01:08;;;;;;;5.63;3.38;;;;;;;;;;5073418;28;20028;-69
2022/02/24 12:03:46;;;;;;;5.72;3.10;;;;;;;;;;5073349;28;20020;-69
2022/02/24 12:06:14;;;;;;;6.07;2.95;;;;;;;;;;5072911;28;20036;-69
2022/02/24 12:09:09;;;;;;;5.32;2.45;;;;;;;;;;5073148;28;20463;-69
2022/02/24 12:11:36;;;;;;;5.97;2.75;;;;;;;;;;5060958;28;20049;-69
2022/02/24 12:14:07;;;;;;;5.82;2.67;;;;;;;;;;5073149;28;20020;-69
2022/02/24 12:16:32;;;;;;;4.88;2.67;;;;;;;;;;5073089;28;20498;-69
2022/02/24 12:18:58;;;;;;;3.97;2.40;;;;;;;;;;5073011;28;20016;-69
2022/02/24 12:21:26;;;;;;;8.13;4.25;;;;;;;;;;5073020;28;20395;-69
2022/02/24 12:23:53;;;;;;;4.20;2.35;;;;;;;;;;5072947;28;20016;-68
2022/02/24 12:26:34;;;;;;;6.63;2.47;;;;;;;;;;5073083;28;20032;-70
2022/02/24 12:29:26;;;;;;;6.55;2.80;;;;;;;;;;5073104;28;20052;-69
2022/02/24 12:31:55;;;;;;;6.05;3.05;;;;;;;;;;5069020;28;20499;-69
2022/02/24 12:34:20;;;;;;;6.55;2.35;;;;;;;;;;5071688;28;20476;-69
2022/02/24 12:36:46;;;;;;;5.35;2.95;;;;;;;;;;5072755;28;20028;-69
2022/02/24 12:39:12;;;;;;;3.67;1.85;;;;;;;;;;5072618;28;20016;-69
2022/02/24 12:41:37;;;;;;;6.97;3.97;;;;;;;;;;5072961;28;20025;-69
2022/02/24 12:44:19;;;;;;;3.88;2.78;;;;;;;;;;5072989;28;20368;-69
2022/02/24 12:46:44;;;;;;;4.85;2.72;;;;;;;;;;5073040;28;20032;-69
2022/02/24 12:49:09;;;;;;;3.85;2.70;;;;;;;;;;5072735;28;20052;-69
2022/02/24 12:51:35;;;;;;;6.85;3.00;;;;;;;;;;5072864;28;20024;-69
2022/02/24 12:54:00;;;;;;;3.95;3.08;;;;;;;;;;5072795;28;20023;-68
2022/02/24 12:56:35;;;;;;;6.55;3.45;;;;;;;;;;5071562;28;20029;-68
2022/02/24 12:59:00;;;;;;;3.65;2.50;;;;;;;;;;5074143;28;20055;-69
2022/02/24 13:01:27;;;;;;;4.45;2.13;;;;;;;;;;5076575;28;20037;-68
2022/02/24 13:03:55;;;;;;;6.32;2.90;;;;;;;;;;5076530;28;20020;-68
2022/02/24 13:06:20;;;;;;;5.40;3.10;;;;;;;;;;5076731;28;20040;-69
2022/02/24 13:11:31;;;;;;;7.68;3.63;;;;;;;;;;5076621;28;20025;-69
2022/02/24 13:14:00;;;;;;;4.95;3.15;;;;;;;;;;5076427;28;20021;-69
2022/02/24 13:16:26;;;;;;;6.32;4.00;;;;;;;;;;5076452;28;20143;-69
2022/02/24 13:18:53;;;;;;;5.97;2.80;;;;;;;;;;5076300;28;20025;-69
2022/02/24 13:21:23;;;;;;;4.28;3.67;;;;;;;;;;5076378;28;20021;-69
2022/02/24 13:23:54;;;;;;;5.70;2.80;;;;;;;;;;5076138;28;20024;-69
2022/02/24 13:26:28;;;;;;;7.45;3.55;;;;;;;;;;5076274;28;20040;-69
2022/02/24 13:28:54;;;;;;;3.85;2.75;;;;;;;;;;5074962;28;20391;-69
2022/02/24 13:31:19;;;;;;;5.25;2.88;;;;;;;;;;5076139;28;20033;-69
2022/02/24 13:33:45;;;;;;;5.93;3.05;;;;;;;;;;5076096;28;20042;-69
2022/02/24 13:36:11;;;;;;;6.50;3.78;;;;;;;;;;5075971;28;20109;-69
2022/02/24 13:38:39;;;;;;;6.07;3.72;;;;;;;;;;5074450;28;20117;-69
2022/02/24 13:41:07;;;;;;;5.15;2.90;;;;;;;;;;5076165;28;20021;-69
2022/02/24 13:43:40;;;;;;;6.80;3.63;;;;;;;;;;5075942;28;20487;-69
2022/02/24 13:46:06;;;;;;;6.75;2.63;;;;;;;;;;5076030;28;20032;-69
2022/02/24 13:48:38;;;;;;;6.13;3.30;;;;;;;;;;5075552;28;20117;-69
2022/02/24 13:51:04;;;;;;;5.43;2.75;;;;;;;;;;5075861;28;20039;-69
2022/02/24 13:53:30;;;;;;;8.65;3.92;;;;;;;;;;5075278;28;20119;-69
2022/02/24 13:55:58;;;;;;;9.45;4.63;;;;;;;;;;5075676;28;20089;-69
2022/02/24 13:58:24;;;;;;;10.80;6.22;;;;;;;;;;5075547;28;20383;-69
2022/02/24 14:00:57;;;;;;;7.28;3.75;;;;;;;;;;5075645;28;20081;-68
2022/02/24 14:03:49;;;;;;;6.88;3.92;;;;;;;;;;5075691;28;20020;-69
2022/02/24 14:06:18;;;;;;;7.57;5.05;;;;;;;;;;5071475;28;20044;-69
2022/02/24 14:08:46;;;;;;;8.05;5.00;;;;;;;;;;5075877;28;20032;-69
2022/02/24 14:11:15;;;;;;;7.20;3.95;;;;;;;;;;5073470;28;20418;-70
2022/02/24 14:13:41;;;;;;;5.60;3.35;;;;;;;;;;5063707;28;20036;-68
2022/02/24 14:16:06;;;;;;;4.45;2.88;;;;;;;;;;5072502;28;20036;-69
2022/02/24 14:18:32;;;;;;;7.72;3.58;;;;;;;;;;5075586;28;20420;-69
2022/02/24 14:20:58;;;;;;;5.25;3.55;;;;;;;;;;5075575;28;20433;-69
2022/02/24 14:23:23;;;;;;;5.90;2.97;;;;;;;;;;5075712;28;20021;-69
2022/02/24 14:25:49;;;;;;;6.38;3.72;;;;;;;;;;5075723;28;20484;-69
2022/02/24 14:28:14;;;;;;;7.15;3.67;;;;;;;;;;5074289;28;20024;-69
2022/02/24 14:30:40;;;;;;;9.73;4.68;;;;;;;;;;5075290;28;20456;-69
2022/02/24 14:33:05;;;;;;;8.77;4.53;;;;;;;;;;5073959;28;20024;-69
2022/02/24 14:35:31;;;;;;;20.90;8.55;;;;;;;;;;5075216;28;20067;-68
2022/02/24 14:37:56;;;;;;;9.00;5.55;;;;;;;;;;5075229;28;20056;-69
2022/02/24 14:40:22;;;;;;;10.50;4.95;;;;;;;;;;5074977;28;20119;-69
2022/02/24 14:42:47;;;;;;;14.88;6.80;;;;;;;;;;5075507;28;20024;-69